Amadeo Saenz Jr — WDJ3356 — position and weather

sailwx.info

Track history (hours):
 
Tides and Currents Weather Stations Pressure Air Temp Water Temp Dewpoint Dewpoint Depression Visibility Wind Speed Wind Dir Waves Ship Positions

Amadeo Saenz Jr

Owner: Texas, State of; Texas Department of Transportation, Austin, TX. More information available from US FCC via Universal Licensing System and Coast Guard Vessel Documentation Center.

Last reported at 2017-Nov-11 00:42 UTC. Time now 2017-Nov-25 02:11 UTC.
Position N 29°30' W 094°52'.
Warning: this ship's position is 14 days out of date.

Type: Passenger vessel. MMSI: 367767230.

Date/timePositionNaut miles runAvg speedWind from/ knotsBaromVisibWave heightAir tempDewpointWater temp
2017-Nov-11 00:42N 29°30' W 094°52'2 9.7
2017-Nov-11 00:30N 29°32' W 094°54'5 9.7
2017-Nov-11 00:00N 29°36' W 094°57'510.0
2017-Nov-10 23:30N 29°40' W 094°59'9 7.4
2017-Nov-10 22:17N 29°44' W 095°08'3 9.5
2017-Nov-10 21:58N 29°45' W 095°12'3 6.8
2017-Nov-10 21:30N 29°43' W 095°15'1 0.7
2017-Nov-10 19:45N 29°43' W 095°16'0 0.0
2017-Nov-10 19:30N 29°43' W 095°16'0 0.0
2017-Nov-10 12:41N 29°43' W 095°16'0 0.0
2017-Nov-10 12:30N 29°43' W 095°16'0 0.0
2017-Nov-10 12:00N 29°43' W 095°16'0 0.0
2017-Nov-10 11:30N 29°43' W 095°16'0 0.0
2017-Nov-10 11:00N 29°43' W 095°16'0 0.0
2017-Nov-10 10:30N 29°43' W 095°16'0 0.0
2017-Nov-10 10:00N 29°43' W 095°16'0 0.0
2017-Nov-10 09:29N 29°43' W 095°16'0 0.0
2017-Nov-10 09:00N 29°43' W 095°16'0 0.0
2017-Nov-10 08:30N 29°43' W 095°16'0 0.0
2017-Nov-10 08:00N 29°43' W 095°16'0 0.0
2017-Nov-10 07:30N 29°43' W 095°16'0 0.0
2017-Nov-10 07:00N 29°43' W 095°16'0 0.0
2017-Nov-10 06:30N 29°43' W 095°16'0 0.0
2017-Nov-10 06:00N 29°43' W 095°16'0 0.0
2017-Nov-10 05:30N 29°43' W 095°16'0 0.0
2017-Nov-10 05:00N 29°43' W 095°16'0 0.0
2017-Nov-10 04:30N 29°43' W 095°16'0 0.0
2017-Nov-10 03:59N 29°43' W 095°16'0 0.0
2017-Nov-10 03:30N 29°43' W 095°16'0 0.0
2017-Nov-10 03:00N 29°43' W 095°16'0 0.0
2017-Nov-10 02:30N 29°43' W 095°16'0 0.0
2017-Nov-10 02:00N 29°43' W 095°16'0 0.0
2017-Nov-10 01:30N 29°43' W 095°16'0 0.0
2017-Nov-10 01:00N 29°43' W 095°16'0 0.0
2017-Nov-10 00:30N 29°43' W 095°16'0 0.0
2017-Nov-10 00:00N 29°43' W 095°16'0 0.0
2017-Nov-09 23:30N 29°43' W 095°16'0 0.0
2017-Nov-09 23:00N 29°43' W 095°16'0 0.0
2017-Nov-09 22:30N 29°43' W 095°16'0 0.0
2017-Nov-09 22:00N 29°43' W 095°16'0 0.0
2017-Nov-09 21:30N 29°43' W 095°16'0 0.0
2017-Nov-09 21:00N 29°43' W 095°16'0 0.0
2017-Nov-09 20:20N 29°43' W 095°16'0 0.0
2017-Nov-09 19:58N 29°43' W 095°16'0 0.0
2017-Nov-09 19:30N 29°43' W 095°16'0 0.0
2017-Nov-09 18:54N 29°43' W 095°16'0 0.0
2017-Nov-09 18:30N 29°43' W 095°16'0 0.0
2017-Nov-09 17:50N 29°43' W 095°16'0 0.0
2017-Nov-09 17:30N 29°43' W 095°16'0 0.0
2017-Nov-09 05:52N 29°43' W 095°16'0 0.0
2017-Nov-09 05:30N 29°43' W 095°16'0 0.0
2017-Nov-09 05:00N 29°43' W 095°16'0 0.0
2017-Nov-09 04:30N 29°43' W 095°16'0 0.0
2017-Nov-09 04:00N 29°43' W 095°16'0 0.0
2017-Nov-09 03:30N 29°43' W 095°16'0 0.0
2017-Nov-09 03:00N 29°43' W 095°16'0 0.0
2017-Nov-09 02:28N 29°43' W 095°16'0 0.0
2017-Nov-09 02:00N 29°43' W 095°16'0 0.0
2017-Nov-09 01:29N 29°43' W 095°16'0 0.0
2017-Nov-09 01:00N 29°43' W 095°16'0 0.0
2017-Nov-09 00:30N 29°43' W 095°16'0 0.0
2017-Nov-09 00:00N 29°43' W 095°16'0 0.0
2017-Nov-08 23:30N 29°43' W 095°16'0 0.0
2017-Nov-08 23:00N 29°43' W 095°16'0 0.0
2017-Nov-08 22:30N 29°43' W 095°16'0 0.0
2017-Nov-08 22:00N 29°43' W 095°16'0 0.0
2017-Nov-08 17:47N 29°43' W 095°16'0 0.0
2017-Nov-08 17:25N 29°43' W 095°16'0 0.0
2017-Nov-08 15:30N 29°43' W 095°16'0 0.0
2017-Nov-07 21:14N 29°43' W 095°16'0 0.0
2017-Nov-07 20:59N 29°43' W 095°16'0 0.2
2017-Nov-07 20:30N 29°44' W 095°16'4 8.0
2017-Nov-07 19:59N 29°45' W 095°12'7 8.1
2017-Nov-07 19:10N 29°45' W 095°04'2 8.8
2017-Nov-07 18:58N 29°44' W 095°03'4 8.1
2017-Nov-07 18:30N 29°42' W 094°59'1 2.5
2017-Nov-07 17:58N 29°42' W 095°01'8 7.9
2017-Nov-07 17:00N 29°44' W 095°09'6 9.0
2017-Nov-07 16:20N 29°43' W 095°16'0 0.4
2017-Nov-07 15:58N 29°43' W 095°16'0 0.0
2017-Nov-07 06:51N 29°43' W 095°16'0 0.0
2017-Nov-07 06:30N 29°43' W 095°16'0 0.0
2017-Nov-07 05:57N 29°43' W 095°16'0 0.0
2017-Nov-07 05:30N 29°43' W 095°16'0 0.0
2017-Nov-07 05:00N 29°43' W 095°16'0 0.0
2017-Nov-07 04:30N 29°43' W 095°16'0 0.0
2017-Nov-07 03:59N 29°43' W 095°16'0 0.0
2017-Nov-07 03:25N 29°43' W 095°16'0 0.0
2017-Nov-07 03:00N 29°43' W 095°16'0 0.0
2017-Nov-07 02:30N 29°43' W 095°16'0 0.0
2017-Nov-07 02:00N 29°43' W 095°16'  
2017-Nov-03 20:53N 29°43' W 095°16'0 0.0
2017-Nov-03 20:31N 29°43' W 095°16'0 0.0
2017-Nov-03 20:00N 29°43' W 095°16'0 0.0
2017-Nov-03 19:30N 29°43' W 095°16'  
Track history (hours):
 
Tides and Currents Weather Stations Pressure Air Temp Water Temp Dewpoint Dewpoint Depression Visibility Wind Speed Wind Dir Waves Ship Positions

Amadeo Saenz Jr

Owner: Texas, State of; Texas Department of Transportation, Austin, TX. More information available from US FCC via Universal Licensing System and Coast Guard Vessel Documentation Center.

Last reported at 2017-Nov-11 00:42 UTC. Time now 2017-Nov-25 02:11 UTC.
Position N 29°30' W 094°52'.
Warning: this ship's position is 14 days out of date.

Type: Passenger vessel. MMSI: 367767230.

Date/timePositionNaut miles runAvg speedWind from/ knotsBaromVisibWave heightAir tempDewpointWater temp
2017-Nov-11 00:42N 29°30' W 094°52'2 9.7
2017-Nov-11 00:30N 29°32' W 094°54'5 9.7
2017-Nov-11 00:00N 29°36' W 094°57'510.0
2017-Nov-10 23:30N 29°40' W 094°59'9 7.4
2017-Nov-10 22:17N 29°44' W 095°08'3 9.5
2017-Nov-10 21:58N 29°45' W 095°12'3 6.8
2017-Nov-10 21:30N 29°43' W 095°15'1 0.7
2017-Nov-10 19:45N 29°43' W 095°16'0 0.0
2017-Nov-10 19:30N 29°43' W 095°16'0 0.0
2017-Nov-10 12:41N 29°43' W 095°16'0 0.0
2017-Nov-10 12:30N 29°43' W 095°16'0 0.0
2017-Nov-10 12:00N 29°43' W 095°16'0 0.0
2017-Nov-10 11:30N 29°43' W 095°16'0 0.0
2017-Nov-10 11:00N 29°43' W 095°16'0 0.0
2017-Nov-10 10:30N 29°43' W 095°16'0 0.0
2017-Nov-10 10:00N 29°43' W 095°16'0 0.0
2017-Nov-10 09:29N 29°43' W 095°16'0 0.0
2017-Nov-10 09:00N 29°43' W 095°16'0 0.0
2017-Nov-10 08:30N 29°43' W 095°16'0 0.0
2017-Nov-10 08:00N 29°43' W 095°16'0 0.0
2017-Nov-10 07:30N 29°43' W 095°16'0 0.0
2017-Nov-10 07:00N 29°43' W 095°16'0 0.0
2017-Nov-10 06:30N 29°43' W 095°16'0 0.0
2017-Nov-10 06:00N 29°43' W 095°16'0 0.0
2017-Nov-10 05:30N 29°43' W 095°16'0 0.0
2017-Nov-10 05:00N 29°43' W 095°16'0 0.0
2017-Nov-10 04:30N 29°43' W 095°16'0 0.0
2017-Nov-10 03:59N 29°43' W 095°16'0 0.0
2017-Nov-10 03:30N 29°43' W 095°16'0 0.0
2017-Nov-10 03:00N 29°43' W 095°16'0 0.0
2017-Nov-10 02:30N 29°43' W 095°16'0 0.0
2017-Nov-10 02:00N 29°43' W 095°16'0 0.0
2017-Nov-10 01:30N 29°43' W 095°16'0 0.0
2017-Nov-10 01:00N 29°43' W 095°16'0 0.0
2017-Nov-10 00:30N 29°43' W 095°16'0 0.0
2017-Nov-10 00:00N 29°43' W 095°16'0 0.0
2017-Nov-09 23:30N 29°43' W 095°16'0 0.0
2017-Nov-09 23:00N 29°43' W 095°16'0 0.0
2017-Nov-09 22:30N 29°43' W 095°16'0 0.0
2017-Nov-09 22:00N 29°43' W 095°16'0 0.0
2017-Nov-09 21:30N 29°43' W 095°16'0 0.0
2017-Nov-09 21:00N 29°43' W 095°16'0 0.0
2017-Nov-09 20:20N 29°43' W 095°16'0 0.0
2017-Nov-09 19:58N 29°43' W 095°16'0 0.0
2017-Nov-09 19:30N 29°43' W 095°16'0 0.0
2017-Nov-09 18:54N 29°43' W 095°16'0 0.0
2017-Nov-09 18:30N 29°43' W 095°16'0 0.0
2017-Nov-09 17:50N 29°43' W 095°16'0 0.0
2017-Nov-09 17:30N 29°43' W 095°16'0 0.0
2017-Nov-09 05:52N 29°43' W 095°16'0 0.0
2017-Nov-09 05:30N 29°43' W 095°16'0 0.0
2017-Nov-09 05:00N 29°43' W 095°16'0 0.0
2017-Nov-09 04:30N 29°43' W 095°16'0 0.0
2017-Nov-09 04:00N 29°43' W 095°16'0 0.0
2017-Nov-09 03:30N 29°43' W 095°16'0 0.0
2017-Nov-09 03:00N 29°43' W 095°16'0 0.0
2017-Nov-09 02:28N 29°43' W 095°16'0 0.0
2017-Nov-09 02:00N 29°43' W 095°16'0 0.0
2017-Nov-09 01:29N 29°43' W 095°16'0 0.0
2017-Nov-09 01:00N 29°43' W 095°16'0 0.0
2017-Nov-09 00:30N 29°43' W 095°16'0 0.0
2017-Nov-09 00:00N 29°43' W 095°16'0 0.0
2017-Nov-08 23:30N 29°43' W 095°16'0 0.0
2017-Nov-08 23:00N 29°43' W 095°16'0 0.0
2017-Nov-08 22:30N 29°43' W 095°16'0 0.0
2017-Nov-08 22:00N 29°43' W 095°16'0 0.0
2017-Nov-08 17:47N 29°43' W 095°16'0 0.0
2017-Nov-08 17:25N 29°43' W 095°16'0 0.0
2017-Nov-08 15:30N 29°43' W 095°16'0 0.0
2017-Nov-07 21:14N 29°43' W 095°16'0 0.0
2017-Nov-07 20:59N 29°43' W 095°16'0 0.2
2017-Nov-07 20:30N 29°44' W 095°16'4 8.0
2017-Nov-07 19:59N 29°45' W 095°12'7 8.1
2017-Nov-07 19:10N 29°45' W 095°04'2 8.8
2017-Nov-07 18:58N 29°44' W 095°03'4 8.1
2017-Nov-07 18:30N 29°42' W 094°59'1 2.5
2017-Nov-07 17:58N 29°42' W 095°01'8 7.9
2017-Nov-07 17:00N 29°44' W 095°09'6 9.0
2017-Nov-07 16:20N 29°43' W 095°16'0 0.4
2017-Nov-07 15:58N 29°43' W 095°16'0 0.0
2017-Nov-07 06:51N 29°43' W 095°16'0 0.0
2017-Nov-07 06:30N 29°43' W 095°16'0 0.0
2017-Nov-07 05:57N 29°43' W 095°16'0 0.0
2017-Nov-07 05:30N 29°43' W 095°16'0 0.0
2017-Nov-07 05:00N 29°43' W 095°16'0 0.0
2017-Nov-07 04:30N 29°43' W 095°16'0 0.0
2017-Nov-07 03:59N 29°43' W 095°16'0 0.0
2017-Nov-07 03:25N 29°43' W 095°16'0 0.0
2017-Nov-07 03:00N 29°43' W 095°16'0 0.0
2017-Nov-07 02:30N 29°43' W 095°16'0 0.0
2017-Nov-07 02:00N 29°43' W 095°16'  
2017-Nov-03 20:53N 29°43' W 095°16'0 0.0
2017-Nov-03 20:31N 29°43' W 095°16'0 0.0
2017-Nov-03 20:00N 29°43' W 095°16'0 0.0
2017-Nov-03 19:30N 29°43' W 095°16'  

Dump ship's entire track history